<?xml version="1.0" encoding="UTF-8" standalone="no" ?>
<gpx xmlns="http://www.topografix.com/GPX/1/1" xmlns:xsi="http://www.w3.org/2001/XMLSchema-instance" xsi:schemaLocation="http://www.topografix.com/GPX/1/1 http://www.topografix.com/GPX/1/1/gpx.xsd" version="1.1" creator="VisuGPX - https://www.visugpx.com">
  <metadata>
    <name>Spontin</name>
    <desc><![CDATA[Rando en boucle à Spontin]]></desc>
  </metadata>
  <trk>
    <name><![CDATA[Crypte RB2.2 on GPSies.com]]></name>
    <trkseg>
      <trkpt lat="50.32232" lon="5.00562">
        <ele>184</ele>
        <time>2010-01-01T00:00:00Z</time>
      </trkpt>
      <trkpt lat="50.3223" lon="5.00563">
        <ele>184</ele>
        <time>2010-01-01T00:00:00Z</time>
      </trkpt>
      <trkpt lat="50.32222" lon="5.00541">
        <ele>184</ele>
        <time>2010-01-01T00:00:07Z</time>
      </trkpt>
      <trkpt lat="50.32198" lon="5.00347">
        <ele>193</ele>
        <time>2010-01-01T00:00:57Z</time>
      </trkpt>
      <trkpt lat="50.32202" lon="5.00314">
        <ele>194</ele>
        <time>2010-01-01T00:01:06Z</time>
      </trkpt>
      <trkpt lat="50.32214" lon="5.00248">
        <ele>190</ele>
        <time>2010-01-01T00:01:23Z</time>
      </trkpt>
      <trkpt lat="50.32213" lon="5.00224">
        <ele>190</ele>
        <time>2010-01-01T00:01:30Z</time>
      </trkpt>
      <trkpt lat="50.32209" lon="5.0019">
        <ele>189</ele>
        <time>2010-01-01T00:01:38Z</time>
      </trkpt>
      <trkpt lat="50.32202" lon="5.00169">
        <ele>189</ele>
        <time>2010-01-01T00:01:44Z</time>
      </trkpt>
      <trkpt lat="50.32211" lon="5.00165">
        <ele>188</ele>
        <time>2010-01-01T00:01:48Z</time>
      </trkpt>
      <trkpt lat="50.32252" lon="5.00139">
        <ele>189</ele>
        <time>2010-01-01T00:02:06Z</time>
      </trkpt>
      <trkpt lat="50.32282" lon="5.00116">
        <ele>192</ele>
        <time>2010-01-01T00:02:19Z</time>
      </trkpt>
      <trkpt lat="50.32292" lon="5.00098">
        <ele>196</ele>
        <time>2010-01-01T00:02:25Z</time>
      </trkpt>
      <trkpt lat="50.32335" lon="5.0006">
        <ele>202</ele>
        <time>2010-01-01T00:02:45Z</time>
      </trkpt>
      <trkpt lat="50.32356" lon="5.00044">
        <ele>206</ele>
        <time>2010-01-01T00:02:54Z</time>
      </trkpt>
      <trkpt lat="50.32368" lon="5.00025">
        <ele>210</ele>
        <time>2010-01-01T00:03:01Z</time>
      </trkpt>
      <trkpt lat="50.32381" lon="5.00013">
        <ele>211</ele>
        <time>2010-01-01T00:03:07Z</time>
      </trkpt>
      <trkpt lat="50.32396" lon="5.00009">
        <ele>211</ele>
        <time>2010-01-01T00:03:13Z</time>
      </trkpt>
      <trkpt lat="50.32416" lon="4.99998">
        <ele>212</ele>
        <time>2010-01-01T00:03:22Z</time>
      </trkpt>
      <trkpt lat="50.32437" lon="4.9998">
        <ele>217</ele>
        <time>2010-01-01T00:03:32Z</time>
      </trkpt>
      <trkpt lat="50.32474" lon="4.99963">
        <ele>222</ele>
        <time>2010-01-01T00:03:47Z</time>
      </trkpt>
      <trkpt lat="50.32505" lon="4.99955">
        <ele>225</ele>
        <time>2010-01-01T00:04:00Z</time>
      </trkpt>
      <trkpt lat="50.3258" lon="4.99902">
        <ele>236</ele>
        <time>2010-01-01T00:04:32Z</time>
      </trkpt>
      <trkpt lat="50.32611" lon="4.99872">
        <ele>239</ele>
        <time>2010-01-01T00:04:47Z</time>
      </trkpt>
      <trkpt lat="50.32617" lon="4.99851">
        <ele>242</ele>
        <time>2010-01-01T00:04:53Z</time>
      </trkpt>
      <trkpt lat="50.32592" lon="4.99798">
        <ele>245</ele>
        <time>2010-01-01T00:05:10Z</time>
      </trkpt>
      <trkpt lat="50.32599" lon="4.99797">
        <ele>244</ele>
        <time>2010-01-01T00:05:13Z</time>
      </trkpt>
      <trkpt lat="50.32615" lon="4.99796">
        <ele>244</ele>
        <time>2010-01-01T00:05:19Z</time>
      </trkpt>
      <trkpt lat="50.32621" lon="4.99787">
        <ele>244</ele>
        <time>2010-01-01T00:05:22Z</time>
      </trkpt>
      <trkpt lat="50.32629" lon="4.99759">
        <ele>243</ele>
        <time>2010-01-01T00:05:30Z</time>
      </trkpt>
      <trkpt lat="50.32638" lon="4.99686">
        <ele>239</ele>
        <time>2010-01-01T00:05:49Z</time>
      </trkpt>
      <trkpt lat="50.32657" lon="4.99597">
        <ele>235</ele>
        <time>2010-01-01T00:06:13Z</time>
      </trkpt>
      <trkpt lat="50.32683" lon="4.99439">
        <ele>224</ele>
        <time>2010-01-01T00:06:55Z</time>
      </trkpt>
      <trkpt lat="50.32687" lon="4.99315">
        <ele>216</ele>
        <time>2010-01-01T00:07:27Z</time>
      </trkpt>
      <trkpt lat="50.32716" lon="4.99155">
        <ele>202</ele>
        <time>2010-01-01T00:08:09Z</time>
      </trkpt>
      <trkpt lat="50.32724" lon="4.99037">
        <ele>193</ele>
        <time>2010-01-01T00:08:39Z</time>
      </trkpt>
      <trkpt lat="50.32725" lon="4.99006">
        <ele>189</ele>
        <time>2010-01-01T00:08:47Z</time>
      </trkpt>
      <trkpt lat="50.3273" lon="4.9895">
        <ele>184</ele>
        <time>2010-01-01T00:09:02Z</time>
      </trkpt>
      <trkpt lat="50.32732" lon="4.98961">
        <ele>184</ele>
        <time>2010-01-01T00:09:05Z</time>
      </trkpt>
      <trkpt lat="50.32732" lon="4.9896">
        <ele>184</ele>
        <time>2010-01-01T00:09:05Z</time>
      </trkpt>
      <trkpt lat="50.3272" lon="4.98896">
        <ele>186</ele>
        <time>2010-01-01T00:09:22Z</time>
      </trkpt>
      <trkpt lat="50.32704" lon="4.98706">
        <ele>182</ele>
        <time>2010-01-01T00:10:11Z</time>
      </trkpt>
      <trkpt lat="50.32704" lon="4.98648">
        <ele>180</ele>
        <time>2010-01-01T00:10:26Z</time>
      </trkpt>
      <trkpt lat="50.32708" lon="4.98574">
        <ele>178</ele>
        <time>2010-01-01T00:10:45Z</time>
      </trkpt>
      <trkpt lat="50.32709" lon="4.98529">
        <ele>179</ele>
        <time>2010-01-01T00:10:56Z</time>
      </trkpt>
      <trkpt lat="50.32702" lon="4.98468">
        <ele>180</ele>
        <time>2010-01-01T00:11:12Z</time>
      </trkpt>
      <trkpt lat="50.32692" lon="4.98408">
        <ele>179</ele>
        <time>2010-01-01T00:11:28Z</time>
      </trkpt>
      <trkpt lat="50.32662" lon="4.98152">
        <ele>175</ele>
        <time>2010-01-01T00:12:34Z</time>
      </trkpt>
      <trkpt lat="50.32624" lon="4.97882">
        <ele>178</ele>
        <time>2010-01-01T00:13:45Z</time>
      </trkpt>
      <trkpt lat="50.32607" lon="4.97789">
        <ele>176</ele>
        <time>2010-01-01T00:14:10Z</time>
      </trkpt>
      <trkpt lat="50.3259" lon="4.9771">
        <ele>177</ele>
        <time>2010-01-01T00:14:31Z</time>
      </trkpt>
      <trkpt lat="50.32578" lon="4.97679">
        <ele>178</ele>
        <time>2010-01-01T00:14:40Z</time>
      </trkpt>
      <trkpt lat="50.32567" lon="4.97655">
        <ele>179</ele>
        <time>2010-01-01T00:14:48Z</time>
      </trkpt>
      <trkpt lat="50.32562" lon="4.97627">
        <ele>177</ele>
        <time>2010-01-01T00:14:55Z</time>
      </trkpt>
      <trkpt lat="50.32559" lon="4.97624">
        <ele>178</ele>
        <time>2010-01-01T00:14:57Z</time>
      </trkpt>
      <trkpt lat="50.32559" lon="4.97623">
        <ele>177</ele>
        <time>2010-01-01T00:14:57Z</time>
      </trkpt>
      <trkpt lat="50.32538" lon="4.97598">
        <ele>179</ele>
        <time>2010-01-01T00:15:08Z</time>
      </trkpt>
      <trkpt lat="50.32527" lon="4.97595">
        <ele>181</ele>
        <time>2010-01-01T00:15:12Z</time>
      </trkpt>
      <trkpt lat="50.32513" lon="4.9757">
        <ele>179</ele>
        <time>2010-01-01T00:15:21Z</time>
      </trkpt>
      <trkpt lat="50.32496" lon="4.97541">
        <ele>179</ele>
        <time>2010-01-01T00:15:31Z</time>
      </trkpt>
      <trkpt lat="50.32479" lon="4.97522">
        <ele>181</ele>
        <time>2010-01-01T00:15:39Z</time>
      </trkpt>
      <trkpt lat="50.32432" lon="4.97438">
        <ele>184</ele>
        <time>2010-01-01T00:16:08Z</time>
      </trkpt>
      <trkpt lat="50.32413" lon="4.97399">
        <ele>183</ele>
        <time>2010-01-01T00:16:20Z</time>
      </trkpt>
      <trkpt lat="50.32394" lon="4.97365">
        <ele>186</ele>
        <time>2010-01-01T00:16:32Z</time>
      </trkpt>
      <trkpt lat="50.32367" lon="4.97299">
        <ele>189</ele>
        <time>2010-01-01T00:16:52Z</time>
      </trkpt>
      <trkpt lat="50.3235" lon="4.97231">
        <ele>194</ele>
        <time>2010-01-01T00:17:10Z</time>
      </trkpt>
      <trkpt lat="50.32352" lon="4.97127">
        <ele>193</ele>
        <time>2010-01-01T00:17:37Z</time>
      </trkpt>
      <trkpt lat="50.32355" lon="4.97042">
        <ele>190</ele>
        <time>2010-01-01T00:17:59Z</time>
      </trkpt>
      <trkpt lat="50.32362" lon="4.97004">
        <ele>185</ele>
        <time>2010-01-01T00:18:09Z</time>
      </trkpt>
      <trkpt lat="50.32374" lon="4.96991">
        <ele>182</ele>
        <time>2010-01-01T00:18:15Z</time>
      </trkpt>
      <trkpt lat="50.32379" lon="4.96935">
        <ele>179</ele>
        <time>2010-01-01T00:18:29Z</time>
      </trkpt>
      <trkpt lat="50.32384" lon="4.96901">
        <ele>177</ele>
        <time>2010-01-01T00:18:38Z</time>
      </trkpt>
      <trkpt lat="50.32381" lon="4.96835">
        <ele>169</ele>
        <time>2010-01-01T00:18:55Z</time>
      </trkpt>
      <trkpt lat="50.32349" lon="4.96783">
        <ele>168</ele>
        <time>2010-01-01T00:19:13Z</time>
      </trkpt>
      <trkpt lat="50.32338" lon="4.96781">
        <ele>168</ele>
        <time>2010-01-01T00:19:18Z</time>
      </trkpt>
      <trkpt lat="50.32318" lon="4.96783">
        <ele>167</ele>
        <time>2010-01-01T00:19:26Z</time>
      </trkpt>
      <trkpt lat="50.32316" lon="4.96778">
        <ele>166</ele>
        <time>2010-01-01T00:19:27Z</time>
      </trkpt>
      <trkpt lat="50.32316" lon="4.96777">
        <ele>166</ele>
        <time>2010-01-01T00:19:28Z</time>
      </trkpt>
      <trkpt lat="50.32318" lon="4.96783">
        <ele>167</ele>
        <time>2010-01-01T00:19:29Z</time>
      </trkpt>
      <trkpt lat="50.32316" lon="4.96783">
        <ele>166</ele>
        <time>2010-01-01T00:19:30Z</time>
      </trkpt>
      <trkpt lat="50.32274" lon="4.9676">
        <ele>163</ele>
        <time>2010-01-01T00:19:48Z</time>
      </trkpt>
      <trkpt lat="50.32255" lon="4.96758">
        <ele>162</ele>
        <time>2010-01-01T00:19:56Z</time>
      </trkpt>
      <trkpt lat="50.32244" lon="4.96763">
        <ele>162</ele>
        <time>2010-01-01T00:20:00Z</time>
      </trkpt>
      <trkpt lat="50.32215" lon="4.96777">
        <ele>167</ele>
        <time>2010-01-01T00:20:12Z</time>
      </trkpt>
      <trkpt lat="50.32171" lon="4.96773">
        <ele>172</ele>
        <time>2010-01-01T00:20:30Z</time>
      </trkpt>
      <trkpt lat="50.32126" lon="4.96748">
        <ele>172</ele>
        <time>2010-01-01T00:20:49Z</time>
      </trkpt>
      <trkpt lat="50.32093" lon="4.96736">
        <ele>178</ele>
        <time>2010-01-01T00:21:03Z</time>
      </trkpt>
      <trkpt lat="50.32051" lon="4.96691">
        <ele>176</ele>
        <time>2010-01-01T00:21:23Z</time>
      </trkpt>
      <trkpt lat="50.32031" lon="4.96652">
        <ele>174</ele>
        <time>2010-01-01T00:21:36Z</time>
      </trkpt>
      <trkpt lat="50.32015" lon="4.96582">
        <ele>179</ele>
        <time>2010-01-01T00:21:55Z</time>
      </trkpt>
      <trkpt lat="50.32012" lon="4.96511">
        <ele>185</ele>
        <time>2010-01-01T00:22:13Z</time>
      </trkpt>
      <trkpt lat="50.32029" lon="4.9646">
        <ele>179</ele>
        <time>2010-01-01T00:22:28Z</time>
      </trkpt>
      <trkpt lat="50.32048" lon="4.96421">
        <ele>178</ele>
        <time>2010-01-01T00:22:40Z</time>
      </trkpt>
      <trkpt lat="50.32075" lon="4.96373">
        <ele>178</ele>
        <time>2010-01-01T00:22:57Z</time>
      </trkpt>
      <trkpt lat="50.3213" lon="4.96331">
        <ele>169</ele>
        <time>2010-01-01T00:23:21Z</time>
      </trkpt>
      <trkpt lat="50.32182" lon="4.96283">
        <ele>171</ele>
        <time>2010-01-01T00:23:45Z</time>
      </trkpt>
      <trkpt lat="50.32218" lon="4.9627">
        <ele>167</ele>
        <time>2010-01-01T00:24:00Z</time>
      </trkpt>
      <trkpt lat="50.32271" lon="4.96245">
        <ele>167</ele>
        <time>2010-01-01T00:24:22Z</time>
      </trkpt>
      <trkpt lat="50.32319" lon="4.96228">
        <ele>166</ele>
        <time>2010-01-01T00:24:42Z</time>
      </trkpt>
      <trkpt lat="50.32355" lon="4.96189">
        <ele>171</ele>
        <time>2010-01-01T00:24:59Z</time>
      </trkpt>
      <trkpt lat="50.32383" lon="4.96137">
        <ele>176</ele>
        <time>2010-01-01T00:25:17Z</time>
      </trkpt>
      <trkpt lat="50.32401" lon="4.96073">
        <ele>180</ele>
        <time>2010-01-01T00:25:35Z</time>
      </trkpt>
      <trkpt lat="50.32416" lon="4.96069">
        <ele>175</ele>
        <time>2010-01-01T00:25:41Z</time>
      </trkpt>
      <trkpt lat="50.3243" lon="4.96067">
        <ele>172</ele>
        <time>2010-01-01T00:25:46Z</time>
      </trkpt>
      <trkpt lat="50.32438" lon="4.96057">
        <ele>170</ele>
        <time>2010-01-01T00:25:50Z</time>
      </trkpt>
      <trkpt lat="50.3245" lon="4.95984">
        <ele>171</ele>
        <time>2010-01-01T00:26:10Z</time>
      </trkpt>
      <trkpt lat="50.32465" lon="4.95938">
        <ele>170</ele>
        <time>2010-01-01T00:26:23Z</time>
      </trkpt>
      <trkpt lat="50.32515" lon="4.95884">
        <ele>158</ele>
        <time>2010-01-01T00:26:47Z</time>
      </trkpt>
      <trkpt lat="50.3252" lon="4.95865">
        <ele>159</ele>
        <time>2010-01-01T00:26:53Z</time>
      </trkpt>
      <trkpt lat="50.3252" lon="4.95831">
        <ele>160</ele>
        <time>2010-01-01T00:27:01Z</time>
      </trkpt>
      <trkpt lat="50.32508" lon="4.95755">
        <ele>162</ele>
        <time>2010-01-01T00:27:21Z</time>
      </trkpt>
      <trkpt lat="50.32495" lon="4.9568">
        <ele>159</ele>
        <time>2010-01-01T00:27:41Z</time>
      </trkpt>
      <trkpt lat="50.32493" lon="4.95654">
        <ele>158</ele>
        <time>2010-01-01T00:27:48Z</time>
      </trkpt>
      <trkpt lat="50.32499" lon="4.95631">
        <ele>157</ele>
        <time>2010-01-01T00:27:54Z</time>
      </trkpt>
      <trkpt lat="50.32503" lon="4.95608">
        <ele>157</ele>
        <time>2010-01-01T00:28:00Z</time>
      </trkpt>
      <trkpt lat="50.32502" lon="4.95594">
        <ele>159</ele>
        <time>2010-01-01T00:28:04Z</time>
      </trkpt>
      <trkpt lat="50.32469" lon="4.955">
        <ele>158</ele>
        <time>2010-01-01T00:28:31Z</time>
      </trkpt>
      <trkpt lat="50.32461" lon="4.95487">
        <ele>158</ele>
        <time>2010-01-01T00:28:36Z</time>
      </trkpt>
      <trkpt lat="50.32449" lon="4.95474">
        <ele>159</ele>
        <time>2010-01-01T00:28:42Z</time>
      </trkpt>
      <trkpt lat="50.32432" lon="4.95466">
        <ele>158</ele>
        <time>2010-01-01T00:28:49Z</time>
      </trkpt>
      <trkpt lat="50.32403" lon="4.95464">
        <ele>155</ele>
        <time>2010-01-01T00:29:00Z</time>
      </trkpt>
      <trkpt lat="50.32391" lon="4.95455">
        <ele>154</ele>
        <time>2010-01-01T00:29:06Z</time>
      </trkpt>
      <trkpt lat="50.32389" lon="4.95444">
        <ele>155</ele>
        <time>2010-01-01T00:29:09Z</time>
      </trkpt>
      <trkpt lat="50.32389" lon="4.95443">
        <ele>155</ele>
        <time>2010-01-01T00:29:09Z</time>
      </trkpt>
      <trkpt lat="50.32386" lon="4.95393">
        <ele>156</ele>
        <time>2010-01-01T00:29:22Z</time>
      </trkpt>
      <trkpt lat="50.32398" lon="4.95274">
        <ele>154</ele>
        <time>2010-01-01T00:29:53Z</time>
      </trkpt>
      <trkpt lat="50.32401" lon="4.95272">
        <ele>154</ele>
        <time>2010-01-01T00:29:54Z</time>
      </trkpt>
      <trkpt lat="50.32403" lon="4.95271">
        <ele>154</ele>
        <time>2010-01-01T00:29:55Z</time>
      </trkpt>
      <trkpt lat="50.32411" lon="4.95276">
        <ele>155</ele>
        <time>2010-01-01T00:29:58Z</time>
      </trkpt>
      <trkpt lat="50.32405" lon="4.95343">
        <ele>156</ele>
        <time>2010-01-01T00:30:15Z</time>
      </trkpt>
      <trkpt lat="50.32408" lon="4.95382">
        <ele>157</ele>
        <time>2010-01-01T00:30:25Z</time>
      </trkpt>
      <trkpt lat="50.32418" lon="4.95417">
        <ele>158</ele>
        <time>2010-01-01T00:30:35Z</time>
      </trkpt>
      <trkpt lat="50.32433" lon="4.95428">
        <ele>159</ele>
        <time>2010-01-01T00:30:42Z</time>
      </trkpt>
      <trkpt lat="50.32449" lon="4.95432">
        <ele>160</ele>
        <time>2010-01-01T00:30:48Z</time>
      </trkpt>
      <trkpt lat="50.32523" lon="4.95417">
        <ele>169</ele>
        <time>2010-01-01T00:31:18Z</time>
      </trkpt>
      <trkpt lat="50.32534" lon="4.95423">
        <ele>171</ele>
        <time>2010-01-01T00:31:23Z</time>
      </trkpt>
      <trkpt lat="50.3257" lon="4.95496">
        <ele>180</ele>
        <time>2010-01-01T00:31:46Z</time>
      </trkpt>
      <trkpt lat="50.3265" lon="4.95627">
        <ele>195</ele>
        <time>2010-01-01T00:32:33Z</time>
      </trkpt>
      <trkpt lat="50.32667" lon="4.95672">
        <ele>202</ele>
        <time>2010-01-01T00:32:46Z</time>
      </trkpt>
      <trkpt lat="50.32689" lon="4.95719">
        <ele>208</ele>
        <time>2010-01-01T00:33:01Z</time>
      </trkpt>
      <trkpt lat="50.32726" lon="4.95783">
        <ele>215</ele>
        <time>2010-01-01T00:33:23Z</time>
      </trkpt>
      <trkpt lat="50.32728" lon="4.9579">
        <ele>215</ele>
        <time>2010-01-01T00:33:25Z</time>
      </trkpt>
      <trkpt lat="50.32728" lon="4.95789">
        <ele>215</ele>
        <time>2010-01-01T00:33:25Z</time>
      </trkpt>
      <trkpt lat="50.3276" lon="4.95902">
        <ele>216</ele>
        <time>2010-01-01T00:33:57Z</time>
      </trkpt>
      <trkpt lat="50.3279" lon="4.96004">
        <ele>218</ele>
        <time>2010-01-01T00:34:26Z</time>
      </trkpt>
      <trkpt lat="50.32803" lon="4.96054">
        <ele>220</ele>
        <time>2010-01-01T00:34:39Z</time>
      </trkpt>
      <trkpt lat="50.32813" lon="4.96105">
        <ele>224</ele>
        <time>2010-01-01T00:34:53Z</time>
      </trkpt>
      <trkpt lat="50.32821" lon="4.96157">
        <ele>226</ele>
        <time>2010-01-01T00:35:07Z</time>
      </trkpt>
      <trkpt lat="50.32832" lon="4.96209">
        <ele>227</ele>
        <time>2010-01-01T00:35:21Z</time>
      </trkpt>
      <trkpt lat="50.32848" lon="4.96261">
        <ele>231</ele>
        <time>2010-01-01T00:35:35Z</time>
      </trkpt>
      <trkpt lat="50.32895" lon="4.9636">
        <ele>235</ele>
        <time>2010-01-01T00:36:07Z</time>
      </trkpt>
      <trkpt lat="50.32907" lon="4.96381">
        <ele>237</ele>
        <time>2010-01-01T00:36:14Z</time>
      </trkpt>
      <trkpt lat="50.32982" lon="4.96472">
        <ele>241</ele>
        <time>2010-01-01T00:36:52Z</time>
      </trkpt>
      <trkpt lat="50.33011" lon="4.96514">
        <ele>244</ele>
        <time>2010-01-01T00:37:08Z</time>
      </trkpt>
      <trkpt lat="50.33024" lon="4.96536">
        <ele>245</ele>
        <time>2010-01-01T00:37:16Z</time>
      </trkpt>
      <trkpt lat="50.33052" lon="4.96609">
        <ele>249</ele>
        <time>2010-01-01T00:37:37Z</time>
      </trkpt>
      <trkpt lat="50.33073" lon="4.96655">
        <ele>249</ele>
        <time>2010-01-01T00:37:52Z</time>
      </trkpt>
      <trkpt lat="50.33101" lon="4.96693">
        <ele>251</ele>
        <time>2010-01-01T00:38:07Z</time>
      </trkpt>
      <trkpt lat="50.33169" lon="4.96778">
        <ele>258</ele>
        <time>2010-01-01T00:38:42Z</time>
      </trkpt>
      <trkpt lat="50.33194" lon="4.96803">
        <ele>260</ele>
        <time>2010-01-01T00:38:53Z</time>
      </trkpt>
      <trkpt lat="50.33264" lon="4.96858">
        <ele>262</ele>
        <time>2010-01-01T00:39:25Z</time>
      </trkpt>
      <trkpt lat="50.33329" lon="4.96898">
        <ele>267</ele>
        <time>2010-01-01T00:39:53Z</time>
      </trkpt>
      <trkpt lat="50.33383" lon="4.96937">
        <ele>271</ele>
        <time>2010-01-01T00:40:17Z</time>
      </trkpt>
      <trkpt lat="50.334" lon="4.96941">
        <ele>272</ele>
        <time>2010-01-01T00:40:23Z</time>
      </trkpt>
      <trkpt lat="50.33454" lon="4.96924">
        <ele>277</ele>
        <time>2010-01-01T00:40:45Z</time>
      </trkpt>
      <trkpt lat="50.33617" lon="4.9688">
        <ele>281</ele>
        <time>2010-01-01T00:41:52Z</time>
      </trkpt>
      <trkpt lat="50.33673" lon="4.96874">
        <ele>286</ele>
        <time>2010-01-01T00:42:14Z</time>
      </trkpt>
      <trkpt lat="50.33673" lon="4.9688">
        <ele>286</ele>
        <time>2010-01-01T00:42:16Z</time>
      </trkpt>
      <trkpt lat="50.33673" lon="4.96879">
        <ele>286</ele>
        <time>2010-01-01T00:42:16Z</time>
      </trkpt>
      <trkpt lat="50.33678" lon="4.96898">
        <ele>286</ele>
        <time>2010-01-01T00:42:21Z</time>
      </trkpt>
      <trkpt lat="50.33686" lon="4.96874">
        <ele>287</ele>
        <time>2010-01-01T00:42:28Z</time>
      </trkpt>
      <trkpt lat="50.33698" lon="4.96852">
        <ele>286</ele>
        <time>2010-01-01T00:42:35Z</time>
      </trkpt>
      <trkpt lat="50.33742" lon="4.96867">
        <ele>287</ele>
        <time>2010-01-01T00:42:53Z</time>
      </trkpt>
      <trkpt lat="50.33755" lon="4.96884">
        <ele>287</ele>
        <time>2010-01-01T00:43:00Z</time>
      </trkpt>
      <trkpt lat="50.33799" lon="4.96957">
        <ele>285</ele>
        <time>2010-01-01T00:43:26Z</time>
      </trkpt>
      <trkpt lat="50.339" lon="4.9698">
        <ele>277</ele>
        <time>2010-01-01T00:44:07Z</time>
      </trkpt>
      <trkpt lat="50.33918" lon="4.97006">
        <ele>276</ele>
        <time>2010-01-01T00:44:17Z</time>
      </trkpt>
      <trkpt lat="50.33929" lon="4.97034">
        <ele>274</ele>
        <time>2010-01-01T00:44:25Z</time>
      </trkpt>
      <trkpt lat="50.33946" lon="4.97098">
        <ele>270</ele>
        <time>2010-01-01T00:44:43Z</time>
      </trkpt>
      <trkpt lat="50.33951" lon="4.97111">
        <ele>269</ele>
        <time>2010-01-01T00:44:47Z</time>
      </trkpt>
      <trkpt lat="50.33958" lon="4.9712">
        <ele>268</ele>
        <time>2010-01-01T00:44:50Z</time>
      </trkpt>
      <trkpt lat="50.33965" lon="4.97125">
        <ele>267</ele>
        <time>2010-01-01T00:44:53Z</time>
      </trkpt>
      <trkpt lat="50.33991" lon="4.97123">
        <ele>263</ele>
        <time>2010-01-01T00:45:04Z</time>
      </trkpt>
      <trkpt lat="50.34007" lon="4.97116">
        <ele>260</ele>
        <time>2010-01-01T00:45:10Z</time>
      </trkpt>
      <trkpt lat="50.34033" lon="4.97098">
        <ele>258</ele>
        <time>2010-01-01T00:45:22Z</time>
      </trkpt>
      <trkpt lat="50.34061" lon="4.97085">
        <ele>255</ele>
        <time>2010-01-01T00:45:33Z</time>
      </trkpt>
      <trkpt lat="50.3412" lon="4.97065">
        <ele>254</ele>
        <time>2010-01-01T00:45:58Z</time>
      </trkpt>
      <trkpt lat="50.34126" lon="4.97065">
        <ele>255</ele>
        <time>2010-01-01T00:46:00Z</time>
      </trkpt>
      <trkpt lat="50.3413" lon="4.97044">
        <ele>255</ele>
        <time>2010-01-01T00:46:06Z</time>
      </trkpt>
      <trkpt lat="50.34254" lon="4.96701">
        <ele>278</ele>
        <time>2010-01-01T00:47:46Z</time>
      </trkpt>
      <trkpt lat="50.34262" lon="4.96679">
        <ele>279</ele>
        <time>2010-01-01T00:47:53Z</time>
      </trkpt>
      <trkpt lat="50.34299" lon="4.96607">
        <ele>284</ele>
        <time>2010-01-01T00:48:16Z</time>
      </trkpt>
      <trkpt lat="50.34338" lon="4.9647">
        <ele>284</ele>
        <time>2010-01-01T00:48:55Z</time>
      </trkpt>
      <trkpt lat="50.34372" lon="4.96396">
        <ele>282</ele>
        <time>2010-01-01T00:49:18Z</time>
      </trkpt>
      <trkpt lat="50.3443" lon="4.9633">
        <ele>269</ele>
        <time>2010-01-01T00:49:47Z</time>
      </trkpt>
      <trkpt lat="50.34449" lon="4.96319">
        <ele>262</ele>
        <time>2010-01-01T00:49:55Z</time>
      </trkpt>
      <trkpt lat="50.34497" lon="4.96312">
        <ele>252</ele>
        <time>2010-01-01T00:50:14Z</time>
      </trkpt>
      <trkpt lat="50.34545" lon="4.96282">
        <ele>242</ele>
        <time>2010-01-01T00:50:35Z</time>
      </trkpt>
      <trkpt lat="50.34593" lon="4.96239">
        <ele>232</ele>
        <time>2010-01-01T00:50:57Z</time>
      </trkpt>
      <trkpt lat="50.34646" lon="4.962">
        <ele>222</ele>
        <time>2010-01-01T00:51:20Z</time>
      </trkpt>
      <trkpt lat="50.34685" lon="4.96153">
        <ele>214</ele>
        <time>2010-01-01T00:51:40Z</time>
      </trkpt>
      <trkpt lat="50.34701" lon="4.96128">
        <ele>211</ele>
        <time>2010-01-01T00:51:49Z</time>
      </trkpt>
      <trkpt lat="50.34719" lon="4.96106">
        <ele>210</ele>
        <time>2010-01-01T00:51:58Z</time>
      </trkpt>
      <trkpt lat="50.34727" lon="4.96098">
        <ele>209</ele>
        <time>2010-01-01T00:52:02Z</time>
      </trkpt>
      <trkpt lat="50.34773" lon="4.96058">
        <ele>206</ele>
        <time>2010-01-01T00:52:23Z</time>
      </trkpt>
      <trkpt lat="50.34817" lon="4.96022">
        <ele>202</ele>
        <time>2010-01-01T00:52:43Z</time>
      </trkpt>
      <trkpt lat="50.34816" lon="4.96022">
        <ele>202</ele>
        <time>2010-01-01T00:52:43Z</time>
      </trkpt>
      <trkpt lat="50.34819" lon="4.96027">
        <ele>202</ele>
        <time>2010-01-01T00:52:45Z</time>
      </trkpt>
      <trkpt lat="50.34838" lon="4.96052">
        <ele>200</ele>
        <time>2010-01-01T00:52:55Z</time>
      </trkpt>
      <trkpt lat="50.34842" lon="4.9606">
        <ele>200</ele>
        <time>2010-01-01T00:52:58Z</time>
      </trkpt>
      <trkpt lat="50.34848" lon="4.96078">
        <ele>199</ele>
        <time>2010-01-01T00:53:03Z</time>
      </trkpt>
      <trkpt lat="50.34852" lon="4.9611">
        <ele>199</ele>
        <time>2010-01-01T00:53:11Z</time>
      </trkpt>
      <trkpt lat="50.34852" lon="4.96178">
        <ele>197</ele>
        <time>2010-01-01T00:53:29Z</time>
      </trkpt>
      <trkpt lat="50.34861" lon="4.96235">
        <ele>195</ele>
        <time>2010-01-01T00:53:44Z</time>
      </trkpt>
      <trkpt lat="50.34859" lon="4.96285">
        <ele>193</ele>
        <time>2010-01-01T00:53:56Z</time>
      </trkpt>
      <trkpt lat="50.34859" lon="4.96361">
        <ele>188</ele>
        <time>2010-01-01T00:54:16Z</time>
      </trkpt>
      <trkpt lat="50.34863" lon="4.96376">
        <ele>187</ele>
        <time>2010-01-01T00:54:20Z</time>
      </trkpt>
      <trkpt lat="50.34869" lon="4.96388">
        <ele>186</ele>
        <time>2010-01-01T00:54:24Z</time>
      </trkpt>
      <trkpt lat="50.34954" lon="4.96467">
        <ele>181</ele>
        <time>2010-01-01T00:55:03Z</time>
      </trkpt>
      <trkpt lat="50.34973" lon="4.96481">
        <ele>183</ele>
        <time>2010-01-01T00:55:12Z</time>
      </trkpt>
      <trkpt lat="50.34973" lon="4.9648">
        <ele>183</ele>
        <time>2010-01-01T00:55:12Z</time>
      </trkpt>
      <trkpt lat="50.34975" lon="4.96482">
        <ele>183</ele>
        <time>2010-01-01T00:55:13Z</time>
      </trkpt>
      <trkpt lat="50.34959" lon="4.96513">
        <ele>185</ele>
        <time>2010-01-01T00:55:23Z</time>
      </trkpt>
      <trkpt lat="50.34941" lon="4.96545">
        <ele>184</ele>
        <time>2010-01-01T00:55:34Z</time>
      </trkpt>
      <trkpt lat="50.34872" lon="4.96641">
        <ele>186</ele>
        <time>2010-01-01T00:56:11Z</time>
      </trkpt>
      <trkpt lat="50.34843" lon="4.96688">
        <ele>192</ele>
        <time>2010-01-01T00:56:28Z</time>
      </trkpt>
      <trkpt lat="50.34813" lon="4.96744">
        <ele>197</ele>
        <time>2010-01-01T00:56:46Z</time>
      </trkpt>
      <trkpt lat="50.34803" lon="4.96781">
        <ele>199</ele>
        <time>2010-01-01T00:56:57Z</time>
      </trkpt>
      <trkpt lat="50.34795" lon="4.96845">
        <ele>199</ele>
        <time>2010-01-01T00:57:13Z</time>
      </trkpt>
      <trkpt lat="50.34783" lon="4.97062">
        <ele>203</ele>
        <time>2010-01-01T00:58:09Z</time>
      </trkpt>
      <trkpt lat="50.34781" lon="4.97066">
        <ele>203</ele>
        <time>2010-01-01T00:58:10Z</time>
      </trkpt>
      <trkpt lat="50.34715" lon="4.97167">
        <ele>213</ele>
        <time>2010-01-01T00:58:47Z</time>
      </trkpt>
      <trkpt lat="50.34715" lon="4.97168">
        <ele>213</ele>
        <time>2010-01-01T00:58:47Z</time>
      </trkpt>
      <trkpt lat="50.34676" lon="4.97227">
        <ele>221</ele>
        <time>2010-01-01T00:59:09Z</time>
      </trkpt>
      <trkpt lat="50.3466" lon="4.97255">
        <ele>226</ele>
        <time>2010-01-01T00:59:19Z</time>
      </trkpt>
      <trkpt lat="50.34642" lon="4.97277">
        <ele>237</ele>
        <time>2010-01-01T00:59:28Z</time>
      </trkpt>
      <trkpt lat="50.34632" lon="4.97295">
        <ele>243</ele>
        <time>2010-01-01T00:59:34Z</time>
      </trkpt>
      <trkpt lat="50.34632" lon="4.97318">
        <ele>244</ele>
        <time>2010-01-01T00:59:40Z</time>
      </trkpt>
      <trkpt lat="50.34626" lon="4.9737">
        <ele>249</ele>
        <time>2010-01-01T00:59:53Z</time>
      </trkpt>
      <trkpt lat="50.34619" lon="4.97393">
        <ele>252</ele>
        <time>2010-01-01T01:00:00Z</time>
      </trkpt>
      <trkpt lat="50.34588" lon="4.97538">
        <ele>269</ele>
        <time>2010-01-01T01:00:39Z</time>
      </trkpt>
      <trkpt lat="50.34555" lon="4.97622">
        <ele>285</ele>
        <time>2010-01-01T01:01:04Z</time>
      </trkpt>
      <trkpt lat="50.34519" lon="4.97697">
        <ele>290</ele>
        <time>2010-01-01T01:01:28Z</time>
      </trkpt>
      <trkpt lat="50.34492" lon="4.97802">
        <ele>292</ele>
        <time>2010-01-01T01:01:57Z</time>
      </trkpt>
      <trkpt lat="50.34491" lon="4.978">
        <ele>292</ele>
        <time>2010-01-01T01:01:58Z</time>
      </trkpt>
      <trkpt lat="50.34491" lon="4.97799">
        <ele>292</ele>
        <time>2010-01-01T01:01:58Z</time>
      </trkpt>
      <trkpt lat="50.34492" lon="4.97802">
        <ele>292</ele>
        <time>2010-01-01T01:01:59Z</time>
      </trkpt>
      <trkpt lat="50.34488" lon="4.97853">
        <ele>294</ele>
        <time>2010-01-01T01:02:12Z</time>
      </trkpt>
      <trkpt lat="50.34476" lon="4.97895">
        <ele>296</ele>
        <time>2010-01-01T01:02:24Z</time>
      </trkpt>
      <trkpt lat="50.34473" lon="4.97897">
        <ele>296</ele>
        <time>2010-01-01T01:02:25Z</time>
      </trkpt>
      <trkpt lat="50.34389" lon="4.97928">
        <ele>299</ele>
        <time>2010-01-01T01:03:00Z</time>
      </trkpt>
      <trkpt lat="50.34366" lon="4.97932">
        <ele>296</ele>
        <time>2010-01-01T01:03:09Z</time>
      </trkpt>
      <trkpt lat="50.34366" lon="4.97933">
        <ele>296</ele>
        <time>2010-01-01T01:03:09Z</time>
      </trkpt>
      <trkpt lat="50.34356" lon="4.97934">
        <ele>294</ele>
        <time>2010-01-01T01:03:13Z</time>
      </trkpt>
      <trkpt lat="50.34371" lon="4.98048">
        <ele>296</ele>
        <time>2010-01-01T01:03:43Z</time>
      </trkpt>
      <trkpt lat="50.34435" lon="4.98416">
        <ele>287</ele>
        <time>2010-01-01T01:05:20Z</time>
      </trkpt>
      <trkpt lat="50.34435" lon="4.98415">
        <ele>287</ele>
        <time>2010-01-01T01:05:21Z</time>
      </trkpt>
      <trkpt lat="50.34443" lon="4.98459">
        <ele>288</ele>
        <time>2010-01-01T01:05:32Z</time>
      </trkpt>
      <trkpt lat="50.34447" lon="4.98497">
        <ele>289</ele>
        <time>2010-01-01T01:05:42Z</time>
      </trkpt>
      <trkpt lat="50.34449" lon="4.98615">
        <ele>290</ele>
        <time>2010-01-01T01:06:12Z</time>
      </trkpt>
      <trkpt lat="50.34449" lon="4.98687">
        <ele>290</ele>
        <time>2010-01-01T01:06:31Z</time>
      </trkpt>
      <trkpt lat="50.34444" lon="4.98811">
        <ele>289</ele>
        <time>2010-01-01T01:07:02Z</time>
      </trkpt>
      <trkpt lat="50.34449" lon="4.98915">
        <ele>290</ele>
        <time>2010-01-01T01:07:29Z</time>
      </trkpt>
      <trkpt lat="50.34447" lon="4.98966">
        <ele>289</ele>
        <time>2010-01-01T01:07:42Z</time>
      </trkpt>
      <trkpt lat="50.34429" lon="4.99072">
        <ele>288</ele>
        <time>2010-01-01T01:08:10Z</time>
      </trkpt>
      <trkpt lat="50.34425" lon="4.99071">
        <ele>288</ele>
        <time>2010-01-01T01:08:12Z</time>
      </trkpt>
      <trkpt lat="50.34424" lon="4.99071">
        <ele>288</ele>
        <time>2010-01-01T01:08:12Z</time>
      </trkpt>
      <trkpt lat="50.34367" lon="4.99059">
        <ele>287</ele>
        <time>2010-01-01T01:08:35Z</time>
      </trkpt>
      <trkpt lat="50.3424" lon="4.99066">
        <ele>275</ele>
        <time>2010-01-01T01:09:26Z</time>
      </trkpt>
      <trkpt lat="50.34207" lon="4.99093">
        <ele>275</ele>
        <time>2010-01-01T01:09:41Z</time>
      </trkpt>
      <trkpt lat="50.34119" lon="4.99116">
        <ele>276</ele>
        <time>2010-01-01T01:10:17Z</time>
      </trkpt>
      <trkpt lat="50.34069" lon="4.99104">
        <ele>284</ele>
        <time>2010-01-01T01:10:37Z</time>
      </trkpt>
      <trkpt lat="50.34024" lon="4.99038">
        <ele>288</ele>
        <time>2010-01-01T01:11:02Z</time>
      </trkpt>
      <trkpt lat="50.33963" lon="4.99034">
        <ele>290</ele>
        <time>2010-01-01T01:11:26Z</time>
      </trkpt>
      <trkpt lat="50.33915" lon="4.99047">
        <ele>292</ele>
        <time>2010-01-01T01:11:45Z</time>
      </trkpt>
      <trkpt lat="50.33875" lon="4.99061">
        <ele>291</ele>
        <time>2010-01-01T01:12:02Z</time>
      </trkpt>
      <trkpt lat="50.33866" lon="4.99064">
        <ele>290</ele>
        <time>2010-01-01T01:12:06Z</time>
      </trkpt>
      <trkpt lat="50.33863" lon="4.99082">
        <ele>291</ele>
        <time>2010-01-01T01:12:10Z</time>
      </trkpt>
      <trkpt lat="50.33845" lon="4.99083">
        <ele>289</ele>
        <time>2010-01-01T01:12:18Z</time>
      </trkpt>
      <trkpt lat="50.33821" lon="4.9912">
        <ele>289</ele>
        <time>2010-01-01T01:12:31Z</time>
      </trkpt>
      <trkpt lat="50.33781" lon="4.99205">
        <ele>287</ele>
        <time>2010-01-01T01:12:58Z</time>
      </trkpt>
      <trkpt lat="50.33743" lon="4.99295">
        <ele>279</ele>
        <time>2010-01-01T01:13:26Z</time>
      </trkpt>
      <trkpt lat="50.33733" lon="4.99336">
        <ele>277</ele>
        <time>2010-01-01T01:13:37Z</time>
      </trkpt>
      <trkpt lat="50.33729" lon="4.99392">
        <ele>276</ele>
        <time>2010-01-01T01:13:51Z</time>
      </trkpt>
      <trkpt lat="50.33728" lon="4.99466">
        <ele>274</ele>
        <time>2010-01-01T01:14:10Z</time>
      </trkpt>
      <trkpt lat="50.33717" lon="4.99506">
        <ele>272</ele>
        <time>2010-01-01T01:14:21Z</time>
      </trkpt>
      <trkpt lat="50.33702" lon="4.99546">
        <ele>268</ele>
        <time>2010-01-01T01:14:33Z</time>
      </trkpt>
      <trkpt lat="50.33682" lon="4.99588">
        <ele>264</ele>
        <time>2010-01-01T01:14:46Z</time>
      </trkpt>
      <trkpt lat="50.33654" lon="4.99687">
        <ele>262</ele>
        <time>2010-01-01T01:15:14Z</time>
      </trkpt>
      <trkpt lat="50.33632" lon="4.99731">
        <ele>260</ele>
        <time>2010-01-01T01:15:28Z</time>
      </trkpt>
      <trkpt lat="50.33615" lon="4.99759">
        <ele>259</ele>
        <time>2010-01-01T01:15:38Z</time>
      </trkpt>
      <trkpt lat="50.33578" lon="4.99855">
        <ele>253</ele>
        <time>2010-01-01T01:16:07Z</time>
      </trkpt>
      <trkpt lat="50.33542" lon="5.00011">
        <ele>244</ele>
        <time>2010-01-01T01:16:49Z</time>
      </trkpt>
      <trkpt lat="50.33535" lon="5.00025">
        <ele>243</ele>
        <time>2010-01-01T01:16:54Z</time>
      </trkpt>
      <trkpt lat="50.3354" lon="5.00057">
        <ele>242</ele>
        <time>2010-01-01T01:17:02Z</time>
      </trkpt>
      <trkpt lat="50.33559" lon="5.00307">
        <ele>236</ele>
        <time>2010-01-01T01:18:07Z</time>
      </trkpt>
      <trkpt lat="50.33559" lon="5.00332">
        <ele>235</ele>
        <time>2010-01-01T01:18:13Z</time>
      </trkpt>
      <trkpt lat="50.33554" lon="5.00353">
        <ele>234</ele>
        <time>2010-01-01T01:18:19Z</time>
      </trkpt>
      <trkpt lat="50.33546" lon="5.00367">
        <ele>234</ele>
        <time>2010-01-01T01:18:23Z</time>
      </trkpt>
      <trkpt lat="50.33554" lon="5.00353">
        <ele>234</ele>
        <time>2010-01-01T01:18:28Z</time>
      </trkpt>
      <trkpt lat="50.33556" lon="5.00414">
        <ele>236</ele>
        <time>2010-01-01T01:18:44Z</time>
      </trkpt>
      <trkpt lat="50.33553" lon="5.0049">
        <ele>237</ele>
        <time>2010-01-01T01:19:03Z</time>
      </trkpt>
      <trkpt lat="50.33589" lon="5.00929">
        <ele>241</ele>
        <time>2010-01-01T01:20:56Z</time>
      </trkpt>
      <trkpt lat="50.3358" lon="5.013">
        <ele>238</ele>
        <time>2010-01-01T01:22:31Z</time>
      </trkpt>
      <trkpt lat="50.33579" lon="5.01313">
        <ele>237</ele>
        <time>2010-01-01T01:22:35Z</time>
      </trkpt>
      <trkpt lat="50.33568" lon="5.0135">
        <ele>239</ele>
        <time>2010-01-01T01:22:45Z</time>
      </trkpt>
      <trkpt lat="50.33517" lon="5.01405">
        <ele>241</ele>
        <time>2010-01-01T01:23:10Z</time>
      </trkpt>
      <trkpt lat="50.33512" lon="5.0141">
        <ele>242</ele>
        <time>2010-01-01T01:23:12Z</time>
      </trkpt>
      <trkpt lat="50.33475" lon="5.01435">
        <ele>242</ele>
        <time>2010-01-01T01:23:28Z</time>
      </trkpt>
      <trkpt lat="50.33461" lon="5.01441">
        <ele>243</ele>
        <time>2010-01-01T01:23:34Z</time>
      </trkpt>
      <trkpt lat="50.33457" lon="5.01442">
        <ele>243</ele>
        <time>2010-01-01T01:23:36Z</time>
      </trkpt>
      <trkpt lat="50.33436" lon="5.01426">
        <ele>242</ele>
        <time>2010-01-01T01:23:45Z</time>
      </trkpt>
      <trkpt lat="50.33384" lon="5.01427">
        <ele>245</ele>
        <time>2010-01-01T01:24:06Z</time>
      </trkpt>
      <trkpt lat="50.33328" lon="5.01398">
        <ele>241</ele>
        <time>2010-01-01T01:24:30Z</time>
      </trkpt>
      <trkpt lat="50.33327" lon="5.01398">
        <ele>241</ele>
        <time>2010-01-01T01:24:30Z</time>
      </trkpt>
      <trkpt lat="50.33323" lon="5.01395">
        <ele>241</ele>
        <time>2010-01-01T01:24:32Z</time>
      </trkpt>
      <trkpt lat="50.33315" lon="5.01412">
        <ele>242</ele>
        <time>2010-01-01T01:24:37Z</time>
      </trkpt>
      <trkpt lat="50.33281" lon="5.01467">
        <ele>245</ele>
        <time>2010-01-01T01:24:57Z</time>
      </trkpt>
      <trkpt lat="50.33258" lon="5.01492">
        <ele>247</ele>
        <time>2010-01-01T01:25:08Z</time>
      </trkpt>
      <trkpt lat="50.33233" lon="5.01514">
        <ele>249</ele>
        <time>2010-01-01T01:25:19Z</time>
      </trkpt>
      <trkpt lat="50.33205" lon="5.01532">
        <ele>250</ele>
        <time>2010-01-01T01:25:32Z</time>
      </trkpt>
      <trkpt lat="50.33175" lon="5.01543">
        <ele>251</ele>
        <time>2010-01-01T01:25:44Z</time>
      </trkpt>
      <trkpt lat="50.33134" lon="5.01548">
        <ele>251</ele>
        <time>2010-01-01T01:26:00Z</time>
      </trkpt>
      <trkpt lat="50.33083" lon="5.01541">
        <ele>252</ele>
        <time>2010-01-01T01:26:21Z</time>
      </trkpt>
      <trkpt lat="50.32972" lon="5.01497">
        <ele>259</ele>
        <time>2010-01-01T01:27:07Z</time>
      </trkpt>
      <trkpt lat="50.32893" lon="5.01457">
        <ele>264</ele>
        <time>2010-01-01T01:27:40Z</time>
      </trkpt>
      <trkpt lat="50.32856" lon="5.01453">
        <ele>263</ele>
        <time>2010-01-01T01:27:55Z</time>
      </trkpt>
      <trkpt lat="50.32844" lon="5.01459">
        <ele>261</ele>
        <time>2010-01-01T01:28:00Z</time>
      </trkpt>
      <trkpt lat="50.32826" lon="5.01471">
        <ele>259</ele>
        <time>2010-01-01T01:28:08Z</time>
      </trkpt>
      <trkpt lat="50.32812" lon="5.0149">
        <ele>258</ele>
        <time>2010-01-01T01:28:15Z</time>
      </trkpt>
      <trkpt lat="50.32794" lon="5.01527">
        <ele>255</ele>
        <time>2010-01-01T01:28:27Z</time>
      </trkpt>
      <trkpt lat="50.32793" lon="5.0153">
        <ele>255</ele>
        <time>2010-01-01T01:28:28Z</time>
      </trkpt>
      <trkpt lat="50.32762" lon="5.01506">
        <ele>252</ele>
        <time>2010-01-01T01:28:42Z</time>
      </trkpt>
      <trkpt lat="50.32765" lon="5.01489">
        <ele>253</ele>
        <time>2010-01-01T01:28:46Z</time>
      </trkpt>
      <trkpt lat="50.32599" lon="5.01148">
        <ele>240</ele>
        <time>2010-01-01T01:30:36Z</time>
      </trkpt>
      <trkpt lat="50.32579" lon="5.01126">
        <ele>237</ele>
        <time>2010-01-01T01:30:45Z</time>
      </trkpt>
      <trkpt lat="50.32489" lon="5.0089">
        <ele>223</ele>
        <time>2010-01-01T01:31:56Z</time>
      </trkpt>
      <trkpt lat="50.32483" lon="5.00859">
        <ele>222</ele>
        <time>2010-01-01T01:32:04Z</time>
      </trkpt>
      <trkpt lat="50.32483" lon="5.00858">
        <ele>222</ele>
        <time>2010-01-01T01:32:04Z</time>
      </trkpt>
      <trkpt lat="50.32446" lon="5.00667">
        <ele>209</ele>
        <time>2010-01-01T01:32:55Z</time>
      </trkpt>
      <trkpt lat="50.32421" lon="5.00598">
        <ele>208</ele>
        <time>2010-01-01T01:33:16Z</time>
      </trkpt>
      <trkpt lat="50.32396" lon="5.00569">
        <ele>202</ele>
        <time>2010-01-01T01:33:28Z</time>
      </trkpt>
      <trkpt lat="50.32377" lon="5.00552">
        <ele>197</ele>
        <time>2010-01-01T01:33:37Z</time>
      </trkpt>
      <trkpt lat="50.3236" lon="5.00546">
        <ele>194</ele>
        <time>2010-01-01T01:33:44Z</time>
      </trkpt>
      <trkpt lat="50.32343" lon="5.00523">
        <ele>191</ele>
        <time>2010-01-01T01:33:53Z</time>
      </trkpt>
      <trkpt lat="50.32334" lon="5.00502">
        <ele>190</ele>
        <time>2010-01-01T01:33:59Z</time>
      </trkpt>
      <trkpt lat="50.32334" lon="5.00501">
        <ele>190</ele>
        <time>2010-01-01T01:33:59Z</time>
      </trkpt>
      <trkpt lat="50.32328" lon="5.00492">
        <ele>189</ele>
        <time>2010-01-01T01:34:03Z</time>
      </trkpt>
      <trkpt lat="50.32324" lon="5.00504">
        <ele>188</ele>
        <time>2010-01-01T01:34:06Z</time>
      </trkpt>
      <trkpt lat="50.32311" lon="5.00519">
        <ele>186</ele>
        <time>2010-01-01T01:34:13Z</time>
      </trkpt>
      <trkpt lat="50.32286" lon="5.00541">
        <ele>184</ele>
        <time>2010-01-01T01:34:24Z</time>
      </trkpt>
      <trkpt lat="50.32264" lon="5.00548">
        <ele>184</ele>
        <time>2010-01-01T01:34:33Z</time>
      </trkpt>
      <trkpt lat="50.32238" lon="5.00551">
        <ele>184</ele>
        <time>2010-01-01T01:34:44Z</time>
      </trkpt>
      <trkpt lat="50.32226" lon="5.00552">
        <ele>184</ele>
        <time>2010-01-01T01:34:48Z</time>
      </trkpt>
      <trkpt lat="50.32236" lon="5.00587">
        <ele>185</ele>
        <time>2010-01-01T01:34:58Z</time>
      </trkpt>
      <trkpt lat="50.32239" lon="5.00616">
        <ele>185</ele>
        <time>2010-01-01T01:35:06Z</time>
      </trkpt>
      <trkpt lat="50.32219" lon="5.00765">
        <ele>185</ele>
        <time>2010-01-01T01:35:45Z</time>
      </trkpt>
      <trkpt lat="50.32218" lon="5.00795">
        <ele>184</ele>
        <time>2010-01-01T01:35:52Z</time>
      </trkpt>
      <trkpt lat="50.32228" lon="5.00822">
        <ele>184</ele>
        <time>2010-01-01T01:36:00Z</time>
      </trkpt>
      <trkpt lat="50.32223" lon="5.00827">
        <ele>184</ele>
        <time>2010-01-01T01:36:03Z</time>
      </trkpt>
      <trkpt lat="50.32223" lon="5.00828">
        <ele>184</ele>
        <time>2010-01-01T01:36:03Z</time>
      </trkpt>
      <trkpt lat="50.32215" lon="5.00835">
        <ele>186</ele>
        <time>2010-01-01T01:36:07Z</time>
      </trkpt>
      <trkpt lat="50.32208" lon="5.00849">
        <ele>187</ele>
        <time>2010-01-01T01:36:11Z</time>
      </trkpt>
      <trkpt lat="50.32194" lon="5.00889">
        <ele>188</ele>
        <time>2010-01-01T01:36:23Z</time>
      </trkpt>
      <trkpt lat="50.32184" lon="5.00905">
        <ele>188</ele>
        <time>2010-01-01T01:36:29Z</time>
      </trkpt>
      <trkpt lat="50.32163" lon="5.00927">
        <ele>188</ele>
        <time>2010-01-01T01:36:39Z</time>
      </trkpt>
      <trkpt lat="50.32152" lon="5.00933">
        <ele>187</ele>
        <time>2010-01-01T01:36:43Z</time>
      </trkpt>
      <trkpt lat="50.32096" lon="5.00954">
        <ele>191</ele>
        <time>2010-01-01T01:37:06Z</time>
      </trkpt>
      <trkpt lat="50.32064" lon="5.00962">
        <ele>192</ele>
        <time>2010-01-01T01:37:19Z</time>
      </trkpt>
      <trkpt lat="50.32053" lon="5.00962">
        <ele>192</ele>
        <time>2010-01-01T01:37:24Z</time>
      </trkpt>
      <trkpt lat="50.32014" lon="5.00971">
        <ele>193</ele>
        <time>2010-01-01T01:37:40Z</time>
      </trkpt>
      <trkpt lat="50.3201" lon="5.00969">
        <ele>193</ele>
        <time>2010-01-01T01:37:41Z</time>
      </trkpt>
      <trkpt lat="50.3192" lon="5.01043">
        <ele>202</ele>
        <time>2010-01-01T01:38:22Z</time>
      </trkpt>
      <trkpt lat="50.31856" lon="5.01077">
        <ele>202</ele>
        <time>2010-01-01T01:38:49Z</time>
      </trkpt>
      <trkpt lat="50.31823" lon="5.01095">
        <ele>203</ele>
        <time>2010-01-01T01:39:03Z</time>
      </trkpt>
      <trkpt lat="50.31804" lon="5.01118">
        <ele>203</ele>
        <time>2010-01-01T01:39:13Z</time>
      </trkpt>
      <trkpt lat="50.31775" lon="5.01122">
        <ele>205</ele>
        <time>2010-01-01T01:39:24Z</time>
      </trkpt>
      <trkpt lat="50.31775" lon="5.01127">
        <ele>204</ele>
        <time>2010-01-01T01:39:25Z</time>
      </trkpt>
      <trkpt lat="50.31746" lon="5.01127">
        <ele>208</ele>
        <time>2010-01-01T01:39:37Z</time>
      </trkpt>
      <trkpt lat="50.31709" lon="5.01151">
        <ele>205</ele>
        <time>2010-01-01T01:39:53Z</time>
      </trkpt>
      <trkpt lat="50.31655" lon="5.01207">
        <ele>208</ele>
        <time>2010-01-01T01:40:19Z</time>
      </trkpt>
      <trkpt lat="50.31637" lon="5.01226">
        <ele>210</ele>
        <time>2010-01-01T01:40:28Z</time>
      </trkpt>
      <trkpt lat="50.31616" lon="5.01331">
        <ele>201</ele>
        <time>2010-01-01T01:40:56Z</time>
      </trkpt>
      <trkpt lat="50.31601" lon="5.01473">
        <ele>208</ele>
        <time>2010-01-01T01:41:33Z</time>
      </trkpt>
      <trkpt lat="50.31599" lon="5.0149">
        <ele>208</ele>
        <time>2010-01-01T01:41:37Z</time>
      </trkpt>
      <trkpt lat="50.3166" lon="5.01876">
        <ele>203</ele>
        <time>2010-01-01T01:43:19Z</time>
      </trkpt>
      <trkpt lat="50.31682" lon="5.02051">
        <ele>210</ele>
        <time>2010-01-01T01:44:04Z</time>
      </trkpt>
      <trkpt lat="50.31682" lon="5.02059">
        <ele>210</ele>
        <time>2010-01-01T01:44:06Z</time>
      </trkpt>
      <trkpt lat="50.31673" lon="5.02053">
        <ele>211</ele>
        <time>2010-01-01T01:44:10Z</time>
      </trkpt>
      <trkpt lat="50.31622" lon="5.0205">
        <ele>216</ele>
        <time>2010-01-01T01:44:31Z</time>
      </trkpt>
      <trkpt lat="50.31616" lon="5.02044">
        <ele>217</ele>
        <time>2010-01-01T01:44:33Z</time>
      </trkpt>
      <trkpt lat="50.31616" lon="5.02043">
        <ele>217</ele>
        <time>2010-01-01T01:44:34Z</time>
      </trkpt>
      <trkpt lat="50.31612" lon="5.0204">
        <ele>217</ele>
        <time>2010-01-01T01:44:35Z</time>
      </trkpt>
      <trkpt lat="50.31585" lon="5.01974">
        <ele>219</ele>
        <time>2010-01-01T01:44:56Z</time>
      </trkpt>
      <trkpt lat="50.3158" lon="5.01955">
        <ele>220</ele>
        <time>2010-01-01T01:45:01Z</time>
      </trkpt>
      <trkpt lat="50.3156" lon="5.01846">
        <ele>223</ele>
        <time>2010-01-01T01:45:30Z</time>
      </trkpt>
      <trkpt lat="50.31546" lon="5.01783">
        <ele>226</ele>
        <time>2010-01-01T01:45:47Z</time>
      </trkpt>
      <trkpt lat="50.315" lon="5.01611">
        <ele>228</ele>
        <time>2010-01-01T01:46:34Z</time>
      </trkpt>
      <trkpt lat="50.31496" lon="5.01577">
        <ele>230</ele>
        <time>2010-01-01T01:46:43Z</time>
      </trkpt>
      <trkpt lat="50.31501" lon="5.0141">
        <ele>236</ele>
        <time>2010-01-01T01:47:26Z</time>
      </trkpt>
      <trkpt lat="50.3155" lon="5.01134">
        <ele>239</ele>
        <time>2010-01-01T01:48:39Z</time>
      </trkpt>
      <trkpt lat="50.31552" lon="5.01051">
        <ele>242</ele>
        <time>2010-01-01T01:49:00Z</time>
      </trkpt>
      <trkpt lat="50.31551" lon="5.01003">
        <ele>241</ele>
        <time>2010-01-01T01:49:13Z</time>
      </trkpt>
      <trkpt lat="50.31553" lon="5.00949">
        <ele>241</ele>
        <time>2010-01-01T01:49:27Z</time>
      </trkpt>
      <trkpt lat="50.31556" lon="5.00942">
        <ele>242</ele>
        <time>2010-01-01T01:49:29Z</time>
      </trkpt>
      <trkpt lat="50.31556" lon="5.00933">
        <ele>242</ele>
        <time>2010-01-01T01:49:31Z</time>
      </trkpt>
      <trkpt lat="50.31556" lon="5.00927">
        <ele>242</ele>
        <time>2010-01-01T01:49:33Z</time>
      </trkpt>
      <trkpt lat="50.31556" lon="5.00926">
        <ele>242</ele>
        <time>2010-01-01T01:49:33Z</time>
      </trkpt>
      <trkpt lat="50.31555" lon="5.0092">
        <ele>241</ele>
        <time>2010-01-01T01:49:34Z</time>
      </trkpt>
      <trkpt lat="50.31517" lon="5.00804">
        <ele>237</ele>
        <time>2010-01-01T01:50:08Z</time>
      </trkpt>
      <trkpt lat="50.31509" lon="5.00792">
        <ele>237</ele>
        <time>2010-01-01T01:50:12Z</time>
      </trkpt>
      <trkpt lat="50.31496" lon="5.00781">
        <ele>236</ele>
        <time>2010-01-01T01:50:18Z</time>
      </trkpt>
      <trkpt lat="50.31478" lon="5.0076">
        <ele>233</ele>
        <time>2010-01-01T01:50:27Z</time>
      </trkpt>
      <trkpt lat="50.3146" lon="5.00727">
        <ele>230</ele>
        <time>2010-01-01T01:50:38Z</time>
      </trkpt>
      <trkpt lat="50.31441" lon="5.00667">
        <ele>229</ele>
        <time>2010-01-01T01:50:55Z</time>
      </trkpt>
      <trkpt lat="50.3144" lon="5.00667">
        <ele>229</ele>
        <time>2010-01-01T01:50:56Z</time>
      </trkpt>
      <trkpt lat="50.31437" lon="5.00655">
        <ele>229</ele>
        <time>2010-01-01T01:50:59Z</time>
      </trkpt>
      <trkpt lat="50.31448" lon="5.00662">
        <ele>229</ele>
        <time>2010-01-01T01:51:04Z</time>
      </trkpt>
      <trkpt lat="50.3146" lon="5.00664">
        <ele>228</ele>
        <time>2010-01-01T01:51:09Z</time>
      </trkpt>
      <trkpt lat="50.31618" lon="5.00632">
        <ele>225</ele>
        <time>2010-01-01T01:52:12Z</time>
      </trkpt>
      <trkpt lat="50.31636" lon="5.00631">
        <ele>226</ele>
        <time>2010-01-01T01:52:20Z</time>
      </trkpt>
      <trkpt lat="50.31767" lon="5.00658">
        <ele>228</ele>
        <time>2010-01-01T01:53:12Z</time>
      </trkpt>
      <trkpt lat="50.31798" lon="5.00667">
        <ele>227</ele>
        <time>2010-01-01T01:53:25Z</time>
      </trkpt>
      <trkpt lat="50.31849" lon="5.00695">
        <ele>221</ele>
        <time>2010-01-01T01:53:47Z</time>
      </trkpt>
      <trkpt lat="50.31875" lon="5.00701">
        <ele>221</ele>
        <time>2010-01-01T01:53:57Z</time>
      </trkpt>
      <trkpt lat="50.31977" lon="5.00715">
        <ele>210</ele>
        <time>2010-01-01T01:54:38Z</time>
      </trkpt>
      <trkpt lat="50.3199" lon="5.00713">
        <ele>209</ele>
        <time>2010-01-01T01:54:43Z</time>
      </trkpt>
      <trkpt lat="50.31987" lon="5.00706">
        <ele>209</ele>
        <time>2010-01-01T01:54:46Z</time>
      </trkpt>
      <trkpt lat="50.31987" lon="5.00705">
        <ele>210</ele>
        <time>2010-01-01T01:54:46Z</time>
      </trkpt>
      <trkpt lat="50.3199" lon="5.00713">
        <ele>209</ele>
        <time>2010-01-01T01:54:48Z</time>
      </trkpt>
      <trkpt lat="50.32009" lon="5.00674">
        <ele>207</ele>
        <time>2010-01-01T01:55:01Z</time>
      </trkpt>
      <trkpt lat="50.3201" lon="5.00671">
        <ele>207</ele>
        <time>2010-01-01T01:55:02Z</time>
      </trkpt>
      <trkpt lat="50.32085" lon="5.00665">
        <ele>199</ele>
        <time>2010-01-01T01:55:32Z</time>
      </trkpt>
      <trkpt lat="50.32095" lon="5.00664">
        <ele>198</ele>
        <time>2010-01-01T01:55:36Z</time>
      </trkpt>
      <trkpt lat="50.32157" lon="5.0064">
        <ele>192</ele>
        <time>2010-01-01T01:56:01Z</time>
      </trkpt>
      <trkpt lat="50.3216" lon="5.00639">
        <ele>192</ele>
        <time>2010-01-01T01:56:03Z</time>
      </trkpt>
      <trkpt lat="50.32167" lon="5.00592">
        <ele>189</ele>
        <time>2010-01-01T01:56:15Z</time>
      </trkpt>
      <trkpt lat="50.32167" lon="5.00588">
        <ele>189</ele>
        <time>2010-01-01T01:56:16Z</time>
      </trkpt>
      <trkpt lat="50.32191" lon="5.00585">
        <ele>188</ele>
        <time>2010-01-01T01:56:25Z</time>
      </trkpt>
      <trkpt lat="50.32218" lon="5.00572">
        <ele>185</ele>
        <time>2010-01-01T01:56:37Z</time>
      </trkpt>
      <trkpt lat="50.32223" lon="5.00568">
        <ele>185</ele>
        <time>2010-01-01T01:56:39Z</time>
      </trkpt>
    </trkseg>
  </trk>
</gpx>